sensor_id;sensor_type;location;lat;lon;timestamp;pressure;altitude;pressure_sealevel;temperature;humidity
69411;BME280;56604;48.652;9.194;2024-01-06T00:00:50;95026.19;;;5.19;95.70
69411;BME280;56604;48.652;9.194;2024-01-06T00:03:16;95029.34;;;5.21;95.28
69411;BME280;56604;48.652;9.194;2024-01-06T00:05:42;95029.34;;;5.21;96.02
69411;BME280;56604;48.652;9.194;2024-01-06T00:08:07;95028.28;;;5.22;95.61
69411;BME280;56604;48.652;9.194;2024-01-06T00:10:33;95033.72;;;5.21;95.15
69411;BME280;56604;48.652;9.194;2024-01-06T00:12:59;95026.19;;;5.19;95.83
69411;BME280;56604;48.652;9.194;2024-01-06T00:15:24;95032.44;;;5.18;95.23
69411;BME280;56604;48.652;9.194;2024-01-06T00:17:49;95028.28;;;5.22;96.51
69411;BME280;56604;48.652;9.194;2024-01-06T00:20:14;95033.34;;;5.07;95.70
69411;BME280;56604;48.652;9.194;2024-01-06T00:22:40;95033.81;;;5.04;96.42
69411;BME280;56604;48.652;9.194;2024-01-06T00:25:07;95036.00;;;5.12;96.31
69411;BME280;56604;48.652;9.194;2024-01-06T00:27:33;95044.56;;;5.07;96.70
69411;BME280;56604;48.652;9.194;2024-01-06T00:29:58;95039.28;;;5.02;96.62
69411;BME280;56604;48.652;9.194;2024-01-06T00:32:24;95042.06;;;4.95;96.64
69411;BME280;56604;48.652;9.194;2024-01-06T00:34:49;95042.00;;;4.90;97.71
69411;BME280;56604;48.652;9.194;2024-01-06T00:37:14;95039.41;;;4.90;97.85
69411;BME280;56604;48.652;9.194;2024-01-06T00:39:40;95041.47;;;4.88;98.08
69411;BME280;56604;48.652;9.194;2024-01-06T00:42:05;95049.75;;;4.85;98.09
69411;BME280;56604;48.652;9.194;2024-01-06T00:44:31;95052.84;;;4.82;97.98
69411;BME280;56604;48.652;9.194;2024-01-06T00:46:56;95052.28;;;4.80;98.69
69411;BME280;56604;48.652;9.194;2024-01-06T00:49:21;95051.28;;;4.81;97.78
69411;BME280;56604;48.652;9.194;2024-01-06T00:51:47;95050.66;;;4.74;98.75
69411;BME280;56604;48.652;9.194;2024-01-06T00:54:12;95057.88;;;4.67;99.01
69411;BME280;56604;48.652;9.194;2024-01-06T00:56:38;95061.97;;;4.63;98.65
69411;BME280;56604;48.652;9.194;2024-01-06T00:59:03;95052.91;;;4.65;99.00
69411;BME280;56604;48.652;9.194;2024-01-06T01:01:29;95056.66;;;4.74;99.18
69411;BME280;56604;48.652;9.194;2024-01-06T01:03:54;95062.09;;;4.73;99.51
69411;BME280;56604;48.652;9.194;2024-01-06T01:06:20;95054.31;;;4.73;99.24
69411;BME280;56604;48.652;9.194;2024-01-06T01:08:45;95059.50;;;4.73;98.86
69411;BME280;56604;48.652;9.194;2024-01-06T01:11:10;95064.22;;;4.76;98.94
69411;BME280;56604;48.652;9.194;2024-01-06T01:13:36;95065.31;;;4.80;98.73
69411;BME280;56604;48.652;9.194;2024-01-06T01:16:01;95065.31;;;4.80;98.41
69411;BME280;56604;48.652;9.194;2024-01-06T01:18:28;95073.13;;;4.80;97.27
69411;BME280;56604;48.652;9.194;2024-01-06T01:20:53;95068.47;;;4.82;98.02
69411;BME280;56604;48.652;9.194;2024-01-06T01:23:18;95063.50;;;4.81;97.64
69411;BME280;56604;48.652;9.194;2024-01-06T01:25:43;95070.22;;;4.77;97.64
69411;BME280;56604;48.652;9.194;2024-01-06T01:28:09;95084.00;;;4.77;96.79
69411;BME280;56604;48.652;9.194;2024-01-06T01:30:34;95076.50;;;4.81;96.30
69411;BME280;56604;48.652;9.194;2024-01-06T01:32:59;95080.66;;;4.60;98.22
69411;BME280;56604;48.652;9.194;2024-01-06T01:35:25;95081.28;;;4.67;98.02
69411;BME280;56604;48.652;9.194;2024-01-06T01:37:50;95086.56;;;4.72;97.95
69411;BME280;56604;48.652;9.194;2024-01-06T01:40:15;95081.28;;;4.67;97.97
69411;BME280;56604;48.652;9.194;2024-01-06T01:42:42;95089.16;;;4.72;98.21
69411;BME280;56604;48.652;9.194;2024-01-06T01:45:08;95087.81;;;4.69;98.25
69411;BME280;56604;48.652;9.194;2024-01-06T01:47:33;95088.63;;;4.70;98.18
69411;BME280;56604;48.652;9.194;2024-01-06T01:49:59;95092.25;;;4.69;98.56
69411;BME280;56604;48.652;9.194;2024-01-06T01:52:26;95099.25;;;4.68;97.84
69411;BME280;56604;48.652;9.194;2024-01-06T01:54:52;95098.69;;;4.66;97.62
69411;BME280;56604;48.652;9.194;2024-01-06T01:57:17;95108.34;;;4.66;97.84
69411;BME280;56604;48.652;9.194;2024-01-06T01:59:43;95102.13;;;4.67;98.41
69411;BME280;56604;48.652;9.194;2024-01-06T02:02:09;95110.25;;;4.54;98.57
69411;BME280;56604;48.652;9.194;2024-01-06T02:04:35;95098.03;;;4.54;97.86
69411;BME280;56604;48.652;9.194;2024-01-06T02:07:00;95106.63;;;4.55;97.86
69411;BME280;56604;48.652;9.194;2024-01-06T02:09:26;95103.53;;;4.58;98.10
69411;BME280;56604;48.652;9.194;2024-01-06T02:11:56;95103.06;;;4.61;98.42
69411;BME280;56604;48.652;9.194;2024-01-06T02:14:22;95104.66;;;4.62;97.37
69411;BME280;56604;48.652;9.194;2024-01-06T02:16:47;95108.75;;;4.58;98.05
69411;BME280;56604;48.652;9.194;2024-01-06T02:19:12;95113.16;;;4.57;97.60
69411;BME280;56604;48.652;9.194;2024-01-06T02:21:43;95118.53;;;4.50;98.80
69411;BME280;56604;48.652;9.194;2024-01-06T02:24:09;95113.34;;;4.50;98.22
69411;BME280;56604;48.652;9.194;2024-01-06T02:26:34;95113.34;;;4.50;98.03
69411;BME280;56604;48.652;9.194;2024-01-06T02:28:59;95123.00;;;4.55;96.85
69411;BME280;56604;48.652;9.194;2024-01-06T02:31:26;95126.91;;;4.53;97.34
69411;BME280;56604;48.652;9.194;2024-01-06T02:33:51;95134.16;;;4.50;96.84
69411;BME280;56604;48.652;9.194;2024-01-06T02:36:17;95124.53;;;4.51;96.56
69411;BME280;56604;48.652;9.194;2024-01-06T02:38:42;95124.84;;;4.55;96.27
69411;BME280;56604;48.652;9.194;2024-01-06T02:41:07;95128.94;;;4.50;95.99
69411;BME280;56604;48.652;9.194;2024-01-06T02:43:33;95118.38;;;4.57;96.26
69411;BME280;56604;48.652;9.194;2024-01-06T02:45:58;95119.88;;;4.53;96.69
69411;BME280;56604;48.652;9.194;2024-01-06T02:48:23;95116.00;;;4.56;96.56
69411;BME280;56604;48.652;9.194;2024-01-06T02:50:48;95120.75;;;4.59;96.08
69411;BME280;56604;48.652;9.194;2024-01-06T02:53:14;95116.00;;;4.56;95.77
69411;BME280;56604;48.652;9.194;2024-01-06T02:55:39;95124.59;;;4.56;96.68
69411;BME280;56604;48.652;9.194;2024-01-06T02:58:05;95125.88;;;4.54;96.00
69411;BME280;56604;48.652;9.194;2024-01-06T03:00:30;95120.88;;;4.52;96.71
69411;BME280;56604;48.652;9.194;2024-01-06T03:02:55;95118.06;;;4.54;95.78
69411;BME280;56604;48.652;9.194;2024-01-06T03:05:21;95122.00;;;4.56;96.21
69411;BME280;56604;48.652;9.194;2024-01-06T03:07:46;95118.38;;;4.57;96.42
69411;BME280;56604;48.652;9.194;2024-01-06T03:10:11;95116.00;;;4.56;96.29
69411;BME280;56604;48.652;9.194;2024-01-06T03:12:37;95119.16;;;4.58;95.97
69411;BME280;56604;48.652;9.194;2024-01-06T03:15:02;95118.53;;;4.50;96.64
69411;BME280;56604;48.652;9.194;2024-01-06T03:17:28;95119.09;;;4.53;96.11
69411;BME280;56604;48.652;9.194;2024-01-06T03:19:54;95117.50;;;4.51;96.88
69411;BME280;56604;48.652;9.194;2024-01-06T03:22:19;95117.44;;;4.46;96.38
69411;BME280;56604;48.652;9.194;2024-01-06T03:24:45;95117.19;;;4.48;97.25
69411;BME280;56604;48.652;9.194;2024-01-06T03:27:10;95115.06;;;4.45;96.26
69411;BME280;56604;48.652;9.194;2024-01-06T03:29:35;95119.50;;;4.44;96.39
69411;BME280;56604;48.652;9.194;2024-01-06T03:32:01;95113.19;;;4.40;97.17
69411;BME280;56604;48.652;9.194;2024-01-06T03:34:26;95112.09;;;4.36;96.73
69411;BME280;56604;48.652;9.194;2024-01-06T03:36:52;95106.88;;;4.36;96.83
69411;BME280;56604;48.652;9.194;2024-01-06T03:39:17;95100.81;;;4.31;96.98
69411;BME280;56604;48.652;9.194;2024-01-06T03:41:43;95105.75;;;4.32;97.71
69411;BME280;56604;48.652;9.194;2024-01-06T03:44:08;95102.78;;;4.40;95.91
69411;BME280;56604;48.652;9.194;2024-01-06T03:46:34;95104.38;;;4.41;95.74
69411;BME280;56604;48.652;9.194;2024-01-06T03:49:00;95115.06;;;4.45;95.57
69411;BME280;56604;48.652;9.194;2024-01-06T03:51:25;95111.06;;;4.37;95.47
69411;BME280;56604;48.652;9.194;2024-01-06T03:53:51;95115.22;;;4.38;96.12
69411;BME280;56604;48.652;9.194;2024-01-06T03:56:16;95117.03;;;4.38;95.79
69411;BME280;56604;48.652;9.194;2024-01-06T03:58:41;95113.34;;;4.34;95.70
69411;BME280;56604;48.652;9.194;2024-01-06T04:01:07;95117.22;;;4.31;96.49
69411;BME280;56604;48.652;9.194;2024-01-06T04:03:32;95117.75;;;4.33;96.47
69411;BME280;56604;48.652;9.194;2024-01-06T04:05:57;95117.59;;;4.40;95.27
69411;BME280;56604;48.652;9.194;2024-01-06T04:08:23;95112.56;;;4.33;95.74
69411;BME280;56604;48.652;9.194;2024-01-06T04:10:48;95128.69;;;4.35;95.35
69411;BME280;56604;48.652;9.194;2024-01-06T04:13:15;95125.31;;;4.35;95.78
69411;BME280;56604;48.652;9.194;2024-01-06T04:15:40;95127.84;;;4.29;95.35
69411;BME280;56604;48.652;9.194;2024-01-06T04:18:06;95133.75;;;4.25;95.18
69411;BME280;56604;48.652;9.194;2024-01-06T04:20:32;95135.81;;;4.23;95.16
69411;BME280;56604;48.652;9.194;2024-01-06T04:22:58;95145.19;;;4.24;94.74
69411;BME280;56604;48.652;9.194;2024-01-06T04:25:24;95141.56;;;4.25;95.39
69411;BME280;56604;48.652;9.194;2024-01-06T04:27:49;95137.63;;;4.22;96.40
69411;BME280;56604;48.652;9.194;2024-01-06T04:30:15;95141.25;;;4.21;96.65
69411;BME280;56604;48.652;9.194;2024-01-06T04:32:41;95141.69;;;4.18;96.44
69411;BME280;56604;48.652;9.194;2024-01-06T04:35:07;95137.31;;;4.19;95.54
69411;BME280;56604;48.652;9.194;2024-01-06T04:37:32;95136.09;;;4.10;95.71
69411;BME280;56604;48.652;9.194;2024-01-06T04:39:58;95140.78;;;4.08;96.47
69411;BME280;56604;48.652;9.194;2024-01-06T04:42:23;95139.97;;;4.07;96.40
69411;BME280;56604;48.652;9.194;2024-01-06T04:44:49;95133.97;;;4.06;96.87
69411;BME280;56604;48.652;9.194;2024-01-06T04:47:15;95137.13;;;4.09;96.41
69411;BME280;56604;48.652;9.194;2024-01-06T04:49:40;95141.09;;;4.11;96.55
69411;BME280;56604;48.652;9.194;2024-01-06T04:52:05;95140.44;;;4.04;96.82
69411;BME280;56604;48.652;9.194;2024-01-06T04:54:31;95145.88;;;4.02;96.73
69411;BME280;56604;48.652;9.194;2024-01-06T04:56:58;95155.25;;;4.03;96.15
69411;BME280;56604;48.652;9.194;2024-01-06T04:59:23;95151.09;;;4.02;96.44
69411;BME280;56604;48.652;9.194;2024-01-06T05:01:49;95158.88;;;4.02;96.05
69411;BME280;56604;48.652;9.194;2024-01-06T05:04:16;95153.38;;;3.99;96.03
69411;BME280;56604;48.652;9.194;2024-01-06T05:06:42;95155.41;;;3.97;96.09
69411;BME280;56604;48.652;9.194;2024-01-06T05:09:07;95154.63;;;3.96;96.48
69411;BME280;56604;48.652;9.194;2024-01-06T05:11:32;95158.22;;;3.95;95.99
69411;BME280;56604;48.652;9.194;2024-01-06T05:13:57;95154.63;;;3.96;96.44
69411;BME280;56604;48.652;9.194;2024-01-06T05:16:23;95159.34;;;3.99;96.59
69411;BME280;56604;48.652;9.194;2024-01-06T05:18:48;95161.84;;;3.94;96.90
69411;BME280;56604;48.652;9.194;2024-01-06T05:21:13;95166.59;;;3.97;95.84
69411;BME280;56604;48.652;9.194;2024-01-06T05:23:39;95165.66;;;4.03;95.88
69411;BME280;56604;48.652;9.194;2024-01-06T05:26:04;95170.22;;;3.96;95.72
69411;BME280;56604;48.652;9.194;2024-01-06T05:28:31;95167.06;;;3.94;96.20
69411;BME280;56604;48.652;9.194;2024-01-06T05:30:56;95164.16;;;3.91;97.11
69411;BME280;56604;48.652;9.194;2024-01-06T05:33:22;95167.06;;;3.94;96.58
69411;BME280;56604;48.652;9.194;2024-01-06T05:35:47;95173.50;;;3.92;96.47
69411;BME280;56604;48.652;9.194;2024-01-06T05:38:13;95170.03;;;3.86;96.84
69411;BME280;56604;48.652;9.194;2024-01-06T05:40:40;95174.66;;;3.84;97.54
69411;BME280;56604;48.652;9.194;2024-01-06T05:43:05;95180.09;;;3.82;97.34
69411;BME280;56604;48.652;9.194;2024-01-06T05:45:31;95189.06;;;3.75;97.88
69411;BME280;56604;48.652;9.194;2024-01-06T05:47:56;95190.09;;;3.74;97.53
69411;BME280;56604;48.652;9.194;2024-01-06T05:50:21;95196.50;;;3.83;97.23
69411;BME280;56604;48.652;9.194;2024-01-06T05:52:47;95189.88;;;3.92;97.14
69411;BME280;56604;48.652;9.194;2024-01-06T05:55:14;95193.31;;;3.93;97.15
69411;BME280;56604;48.652;9.194;2024-01-06T05:57:39;95195.75;;;3.99;97.35
69411;BME280;56604;48.652;9.194;2024-01-06T06:00:08;95207.25;;;4.03;96.47
69411;BME280;56604;48.652;9.194;2024-01-06T06:02:33;95196.84;;;4.03;96.44
69411;BME280;56604;48.652;9.194;2024-01-06T06:04:59;95208.38;;;4.08;96.04
69411;BME280;56604;48.652;9.194;2024-01-06T06:07:25;95201.06;;;4.04;95.81
69411;BME280;56604;48.652;9.194;2024-01-06T06:09:50;95213.13;;;4.11;95.95
69411;BME280;56604;48.652;9.194;2024-01-06T06:12:18;95209.94;;;4.09;95.80
69411;BME280;56604;48.652;9.194;2024-01-06T06:14:43;95217.28;;;4.12;96.13
69411;BME280;56604;48.652;9.194;2024-01-06T06:17:08;95214.22;;;4.15;96.53
69411;BME280;56604;48.652;9.194;2024-01-06T06:19:34;95216.59;;;4.16;95.75
69411;BME280;56604;48.652;9.194;2024-01-06T06:21:59;95216.59;;;4.16;95.30
69411;BME280;56604;48.652;9.194;2024-01-06T06:24:24;95221.53;;;4.18;94.96
69411;BME280;56604;48.652;9.194;2024-01-06T06:26:50;95229.34;;;4.18;94.61
69411;BME280;56604;48.652;9.194;2024-01-06T06:29:15;95223.69;;;4.21;94.82
69411;BME280;56604;48.652;9.194;2024-01-06T06:31:41;95233.44;;;4.14;94.92
69411;BME280;56604;48.652;9.194;2024-01-06T06:34:08;95230.28;;;4.12;95.45
69411;BME280;56604;48.652;9.194;2024-01-06T06:36:33;95236.84;;;4.14;95.55
69411;BME280;56604;48.652;9.194;2024-01-06T06:38:58;95231.88;;;4.13;95.05
69411;BME280;56604;48.652;9.194;2024-01-06T06:41:24;95240.69;;;4.12;95.58
69411;BME280;56604;48.652;9.194;2024-01-06T06:43:50;95246.56;;;4.19;94.55
69411;BME280;56604;48.652;9.194;2024-01-06T06:46:16;95251.75;;;4.19;94.70
69411;BME280;56604;48.652;9.194;2024-01-06T06:48:41;95255.59;;;4.16;94.63
69411;BME280;56604;48.652;9.194;2024-01-06T06:51:06;95251.28;;;4.22;94.77
69411;BME280;56604;48.652;9.194;2024-01-06T06:53:32;95258.53;;;4.20;95.09
69411;BME280;56604;48.652;9.194;2024-01-06T06:55:57;95257.44;;;4.16;94.71
69411;BME280;56604;48.652;9.194;2024-01-06T06:58:22;95262.28;;;4.12;95.55
69411;BME280;56604;48.652;9.194;2024-01-06T07:00:48;95258.75;;;4.18;95.62
69411;BME280;56604;48.652;9.194;2024-01-06T07:03:14;95267.34;;;4.19;95.42
69411;BME280;56604;48.652;9.194;2024-01-06T07:05:39;95260.03;;;4.16;95.66
69411;BME280;56604;48.652;9.194;2024-01-06T07:08:04;95263.25;;;4.23;95.04
69411;BME280;56604;48.652;9.194;2024-01-06T07:10:30;95268.94;;;4.20;95.93
69411;BME280;56604;48.652;9.194;2024-01-06T07:12:55;95261.13;;;4.20;96.07
69411;BME280;56604;48.652;9.194;2024-01-06T07:15:20;95263.25;;;4.23;95.95
69411;BME280;56604;48.652;9.194;2024-01-06T07:17:46;95266.09;;;4.21;96.62
69411;BME280;56604;48.652;9.194;2024-01-06T07:20:12;95276.72;;;4.20;96.39
69411;BME280;56604;48.652;9.194;2024-01-06T07:22:37;95273.97;;;4.26;96.45
69411;BME280;56604;48.652;9.194;2024-01-06T07:25:03;95276.50;;;4.21;95.94
69411;BME280;56604;48.652;9.194;2024-01-06T07:27:28;95283.50;;;4.21;96.30
69411;BME280;56604;48.652;9.194;2024-01-06T07:29:54;95290.94;;;4.29;96.12
69411;BME280;56604;48.652;9.194;2024-01-06T07:32:21;95286.31;;;4.31;96.05
69411;BME280;56604;48.652;9.194;2024-01-06T07:34:47;95284.38;;;4.26;96.18
69411;BME280;56604;48.652;9.194;2024-01-06T07:37:12;95286.09;;;4.21;95.93
69411;BME280;56604;48.652;9.194;2024-01-06T07:39:37;95285.19;;;4.27;95.40
69411;BME280;56604;48.652;9.194;2024-01-06T07:42:03;95286.19;;;4.26;95.24
69411;BME280;56604;48.652;9.194;2024-01-06T07:44:29;95294.31;;;4.29;95.05
69411;BME280;56604;48.652;9.194;2024-01-06T07:46:54;95289.94;;;4.30;95.72
69411;BME280;56604;48.652;9.194;2024-01-06T07:49:19;95296.50;;;4.33;95.50
69411;BME280;56604;48.652;9.194;2024-01-06T07:51:45;95293.06;;;4.32;95.37
69411;BME280;56604;48.652;9.194;2024-01-06T07:54:10;95293.06;;;4.32;95.22
69411;BME280;56604;48.652;9.194;2024-01-06T07:56:37;95293.06;;;4.32;94.83
69411;BME280;56604;48.652;9.194;2024-01-06T07:59:03;95296.13;;;4.29;94.65
69411;BME280;56604;48.652;9.194;2024-01-06T08:01:29;95292.59;;;4.35;95.28
69411;BME280;56604;48.652;9.194;2024-01-06T08:03:54;95307.31;;;4.41;95.52
69411;BME280;56604;48.652;9.194;2024-01-06T08:06:20;95298.16;;;4.39;94.62
69411;BME280;56604;48.652;9.194;2024-01-06T08:08:45;95295.97;;;4.47;94.67
69411;BME280;56604;48.652;9.194;2024-01-06T08:11:13;95294.16;;;4.48;94.66
69411;BME280;56604;48.652;9.194;2024-01-06T08:13:39;95292.66;;;4.52;93.95
69411;BME280;56604;48.652;9.194;2024-01-06T08:16:04;95297.06;;;4.51;93.83
69411;BME280;56604;48.652;9.194;2024-01-06T08:18:30;95299.06;;;4.61;93.28
69411;BME280;56604;48.652;9.194;2024-01-06T08:20:56;95307.66;;;4.62;93.62
69411;BME280;56604;48.652;9.194;2024-01-06T08:23:21;95299.28;;;4.60;92.83
69411;BME280;56604;48.652;9.194;2024-01-06T08:25:46;95303.56;;;4.66;93.13
69411;BME280;56604;48.652;9.194;2024-01-06T08:28:13;95311.78;;;4.74;92.65
69411;BME280;56604;48.652;9.194;2024-01-06T08:30:40;95316.84;;;4.81;91.96
69411;BME280;56604;48.652;9.194;2024-01-06T08:33:05;95316.75;;;4.76;92.65
69411;BME280;56604;48.652;9.194;2024-01-06T08:35:31;95312.09;;;4.78;91.21
69411;BME280;56604;48.652;9.194;2024-01-06T08:37:56;95314.72;;;4.78;91.12
69411;BME280;56604;48.652;9.194;2024-01-06T08:40:22;95316.38;;;5.01;90.37
69411;BME280;56604;48.652;9.194;2024-01-06T08:42:47;95311.63;;;5.15;89.25
69411;BME280;56604;48.652;9.194;2024-01-06T08:45:12;95318.34;;;5.11;88.81
69411;BME280;56604;48.652;9.194;2024-01-06T08:47:38;95320.00;;;5.17;88.47
69411;BME280;56604;48.652;9.194;2024-01-06T08:50:03;95316.06;;;5.14;88.69
69411;BME280;56604;48.652;9.194;2024-01-06T08:52:30;95319.69;;;5.30;87.47
69411;BME280;56604;48.652;9.194;2024-01-06T08:54:55;95320.66;;;5.24;87.34
69411;BME280;56604;48.652;9.194;2024-01-06T08:57:21;95322.38;;;5.35;86.67
69411;BME280;56604;48.652;9.194;2024-01-06T08:59:46;95324.44;;;5.33;87.28
69411;BME280;56604;48.652;9.194;2024-01-06T09:02:11;95323.72;;;5.21;87.77
69411;BME280;56604;48.652;9.194;2024-01-06T09:04:37;95327.13;;;5.22;87.72
69411;BME280;56604;48.652;9.194;2024-01-06T09:07:03;95325.53;;;5.21;85.97
69411;BME280;56604;48.652;9.194;2024-01-06T09:09:28;95325.50;;;5.37;85.31
69411;BME280;56604;48.652;9.194;2024-01-06T09:11:55;95329.63;;;5.33;84.94
69411;BME280;56604;48.652;9.194;2024-01-06T09:14:20;95331.59;;;5.26;85.04
69411;BME280;56604;48.652;9.194;2024-01-06T09:16:45;95330.13;;;5.30;85.62
69411;BME280;56604;48.652;9.194;2024-01-06T09:19:10;95332.78;;;5.52;84.23
69411;BME280;56604;48.652;9.194;2024-01-06T09:21:36;95333.50;;;5.48;84.71
69411;BME280;56604;48.652;9.194;2024-01-06T09:24:02;95337.25;;;5.57;84.22
69411;BME280;56604;48.652;9.194;2024-01-06T09:26:32;95337.06;;;5.41;84.86
69411;BME280;56604;48.652;9.194;2024-01-06T09:28:57;95346.19;;;5.61;84.66
69411;BME280;56604;48.652;9.194;2024-01-06T09:31:22;95345.47;;;5.49;84.17
69411;BME280;56604;48.652;9.194;2024-01-06T09:33:49;95359.31;;;5.49;84.52
69411;BME280;56604;48.652;9.194;2024-01-06T09:36:15;95354.16;;;5.54;84.64
69411;BME280;56604;48.652;9.194;2024-01-06T09:38:40;95361.03;;;5.60;84.37
69411;BME280;56604;48.652;9.194;2024-01-06T09:41:05;95359.72;;;5.58;84.47
69411;BME280;56604;48.652;9.194;2024-01-06T09:43:31;95363.91;;;5.59;83.78
69411;BME280;56604;48.652;9.194;2024-01-06T09:46:07;95369.56;;;5.73;82.77
69411;BME280;56604;48.652;9.194;2024-01-06T09:48:40;95365.69;;;5.75;83.20
69411;BME280;56604;48.652;9.194;2024-01-06T09:51:09;95369.38;;;5.79;82.75
69411;BME280;56604;48.652;9.194;2024-01-06T09:53:36;95362.22;;;5.70;83.03
69411;BME280;56604;48.652;9.194;2024-01-06T09:56:06;95366.31;;;5.82;82.26
69411;BME280;56604;48.652;9.194;2024-01-06T09:58:34;95367.94;;;5.89;82.31
69411;BME280;56604;48.652;9.194;2024-01-06T10:01:00;95361.00;;;5.77;82.49
69411;BME280;56604;48.652;9.194;2024-01-06T10:03:26;95364.03;;;5.69;83.12
69411;BME280;56604;48.652;9.194;2024-01-06T10:05:52;95368.31;;;5.75;83.58
69411;BME280;56604;48.652;9.194;2024-01-06T10:08:18;95364.97;;;5.80;82.57
69411;BME280;56604;48.652;9.194;2024-01-06T10:10:44;95360.22;;;5.94;83.29
69411;BME280;56604;48.652;9.194;2024-01-06T10:13:09;95370.31;;;5.90;82.85
69411;BME280;56604;48.652;9.194;2024-01-06T10:15:35;95366.25;;;6.16;81.49
69411;BME280;56604;48.652;9.194;2024-01-06T10:18:01;95361.69;;;6.28;80.81
69411;BME280;56604;48.652;9.194;2024-01-06T10:20:28;95360.78;;;6.40;80.61
69411;BME280;56604;48.652;9.194;2024-01-06T10:22:54;95365.94;;;6.35;81.15
69411;BME280;56604;48.652;9.194;2024-01-06T10:25:23;95368.44;;;6.46;80.95
69411;BME280;56604;48.652;9.194;2024-01-06T10:27:48;95372.91;;;6.73;79.99
69411;BME280;56604;48.652;9.194;2024-01-06T10:30:14;95371.41;;;6.55;78.79
69411;BME280;56604;48.652;9.194;2024-01-06T10:32:43;95368.78;;;6.11;79.86
69411;BME280;56604;48.652;9.194;2024-01-06T10:35:09;95371.28;;;6.45;80.30
69411;BME280;56604;48.652;9.194;2024-01-06T10:37:35;95373.81;;;6.40;79.94
69411;BME280;56604;48.652;9.194;2024-01-06T10:40:15;95372.38;;;6.49;78.89
69411;BME280;56604;48.652;9.194;2024-01-06T10:42:44;95366.69;;;6.30;79.82
69411;BME280;56604;48.652;9.194;2024-01-06T10:45:11;95371.47;;;6.38;80.14
69411;BME280;56604;48.652;9.194;2024-01-06T10:47:38;95370.69;;;6.38;80.82
69411;BME280;56604;48.652;9.194;2024-01-06T10:50:03;95362.78;;;6.33;80.90
69411;BME280;56604;48.652;9.194;2024-01-06T10:52:30;95370.72;;;6.43;80.79
69411;BME280;56604;48.652;9.194;2024-01-06T10:54:55;95365.34;;;6.27;81.71
69411;BME280;56604;48.652;9.194;2024-01-06T10:57:21;95367.09;;;6.44;80.36
69411;BME280;56604;48.652;9.194;2024-01-06T10:59:50;95369.72;;;6.44;80.82
69411;BME280;56604;48.652;9.194;2024-01-06T11:02:15;95365.47;;;6.38;82.45
69411;BME280;56604;48.652;9.194;2024-01-06T11:04:44;95367.03;;;6.39;83.28
69411;BME280;56604;48.652;9.194;2024-01-06T11:07:10;95365.56;;;6.48;82.91
69411;BME280;56604;48.652;9.194;2024-01-06T11:09:37;95360.59;;;6.46;83.13
69411;BME280;56604;48.652;9.194;2024-01-06T11:12:05;95358.22;;;6.45;82.35
69411;BME280;56604;48.652;9.194;2024-01-06T11:14:36;95358.94;;;6.40;82.44
69411;BME280;56604;48.652;9.194;2024-01-06T11:17:03;95356.97;;;6.25;83.95
69411;BME280;56604;48.652;9.194;2024-01-06T11:24:47;95365.09;;;6.07;85.21
69411;BME280;56604;48.652;9.194;2024-01-06T11:27:22;95358.94;;;5.96;83.83
69411;BME280;56604;48.652;9.194;2024-01-06T11:29:48;95352.34;;;6.11;84.49
69411;BME280;56604;48.652;9.194;2024-01-06T11:34:41;95352.47;;;5.99;85.40
69411;BME280;56604;48.652;9.194;2024-01-06T11:37:07;95344.34;;;5.95;85.04
69411;BME280;56604;48.652;9.194;2024-01-06T11:39:37;95344.38;;;6.00;84.53
69411;BME280;56604;48.652;9.194;2024-01-06T11:42:05;95344.22;;;6.07;84.44
69411;BME280;56604;48.652;9.194;2024-01-06T11:44:37;95340.59;;;5.91;85.75
69411;BME280;56604;48.652;9.194;2024-01-06T11:47:04;95332.81;;;6.13;84.43
69411;BME280;56604;48.652;9.194;2024-01-06T11:49:30;95338.53;;;6.10;84.88
69411;BME280;56604;48.652;9.194;2024-01-06T11:51:59;95335.72;;;6.17;84.62
69411;BME280;56604;48.652;9.194;2024-01-06T11:54:25;95336.06;;;6.25;84.79
69411;BME280;56604;48.652;9.194;2024-01-06T11:56:50;95333.53;;;6.30;83.61
69411;BME280;56604;48.652;9.194;2024-01-06T11:59:18;95337.06;;;6.19;83.88
69411;BME280;56604;48.652;9.194;2024-01-06T12:01:43;95335.50;;;6.18;83.99
69411;BME280;56604;48.652;9.194;2024-01-06T12:04:13;95341.72;;;6.17;84.16
69411;BME280;56604;48.652;9.194;2024-01-06T12:06:39;95332.63;;;6.42;83.62
69411;BME280;56604;48.652;9.194;2024-01-06T12:09:12;95333.34;;;6.37;81.78
69411;BME280;56604;48.652;9.194;2024-01-06T12:11:41;95327.81;;;6.34;82.46
69411;BME280;56604;48.652;9.194;2024-01-06T12:14:06;95325.69;;;6.30;81.85
69411;BME280;56604;48.652;9.194;2024-01-06T12:16:32;95330.78;;;6.42;81.71
69411;BME280;56604;48.652;9.194;2024-01-06T12:18:59;95328.03;;;6.54;81.90
69411;BME280;56604;48.652;9.194;2024-01-06T12:21:27;95324.00;;;6.68;81.57
69411;BME280;56604;48.652;9.194;2024-01-06T12:23:52;95328.63;;;6.61;81.78
69411;BME280;56604;48.652;9.194;2024-01-06T12:26:18;95322.53;;;6.78;80.46
69411;BME280;56604;48.652;9.194;2024-01-06T12:28:45;95319.47;;;6.59;80.62
69411;BME280;56604;48.652;9.194;2024-01-06T12:31:11;95318.19;;;6.61;81.01
69411;BME280;56604;48.652;9.194;2024-01-06T12:33:38;95319.84;;;6.45;81.39
69411;BME280;56604;48.652;9.194;2024-01-06T12:36:04;95316.41;;;6.40;80.87
69411;BME280;56604;48.652;9.194;2024-01-06T12:38:31;95310.19;;;6.46;81.57
69411;BME280;56604;48.652;9.194;2024-01-06T12:40:56;95312.91;;;6.56;80.97
69411;BME280;56604;48.652;9.194;2024-01-06T12:43:22;95312.41;;;6.32;82.28
69411;BME280;56604;48.652;9.194;2024-01-06T12:45:47;95313.25;;;6.38;82.50
69411;BME280;56604;48.652;9.194;2024-01-06T12:48:12;95314.13;;;6.21;82.03
69411;BME280;56604;48.652;9.194;2024-01-06T12:50:38;95315.09;;;6.15;82.53
69411;BME280;56604;48.652;9.194;2024-01-06T12:53:03;95314.63;;;6.18;82.89
69411;BME280;56604;48.652;9.194;2024-01-06T12:55:28;95312.50;;;6.15;82.38
69411;BME280;56604;48.652;9.194;2024-01-06T12:57:54;95308.19;;;6.04;83.45
69411;BME280;56604;48.652;9.194;2024-01-06T13:00:19;95309.25;;;6.08;82.86
69411;BME280;56604;48.652;9.194;2024-01-06T13:02:45;95314.47;;;6.08;83.30
69411;BME280;56604;48.652;9.194;2024-01-06T13:05:10;95317.59;;;6.05;84.26
69411;BME280;56604;48.652;9.194;2024-01-06T13:07:38;95309.47;;;6.01;84.50
69411;BME280;56604;48.652;9.194;2024-01-06T13:10:04;95309.47;;;6.01;83.99